Time;durP1;ratioP1;P1;durP2;ratioP2;P2;SDS_P1;SDS_P2;PMS_P1;PMS_P2;Temp;Humidity;BMP_temperature;BMP_pressure;BME280_temperature;BME280_humidity;BME280_pressure;Samples;Min_cycle;Max_cycle;Signal;HPM_P1;HPM_P2
2022/03/09 00:00:06;;;;;;;23.73;12.00;;;;;;;;;;5003022;28;20211;-79
2022/03/09 00:02:32;;;;;;;44.10;20.80;;;;;;;;;;5015823;28;20564;-78
2022/03/09 00:04:59;;;;;;;20.33;11.97;;;;;;;;;;5010136;28;20685;-78
2022/03/09 00:07:27;;;;;;;25.47;14.43;;;;;;;;;;5008792;28;20959;-78
2022/03/09 00:09:53;;;;;;;14.00;8.70;;;;;;;;;;5010081;28;20194;-78
2022/03/09 00:12:19;;;;;;;23.80;13.30;;;;;;;;;;5018249;28;20191;-78
2022/03/09 00:14:45;;;;;;;20.60;12.33;;;;;;;;;;5013567;28;20265;-78
2022/03/09 00:17:11;;;;;;;19.23;11.30;;;;;;;;;;5000706;28;20208;-78
2022/03/09 00:19:37;;;;;;;21.17;11.13;;;;;;;;;;5013929;28;20531;-78
2022/03/09 00:22:04;;;;;;;18.77;11.70;;;;;;;;;;5020418;28;20182;-78
2022/03/09 00:24:30;;;;;;;22.17;12.80;;;;;;;;;;5002534;28;20188;-78
2022/03/09 00:26:57;;;;;;;22.57;12.47;;;;;;;;;;5010542;28;20184;-78
2022/03/09 00:29:23;;;;;;;23.37;13.30;;;;;;;;;;5006122;28;20190;-78
2022/03/09 00:31:49;;;;;;;20.70;11.80;;;;;;;;;;5005712;28;20622;-78
2022/03/09 00:34:15;;;;;;;15.40;9.93;;;;;;;;;;5013862;28;20183;-78
2022/03/09 00:36:42;;;;;;;16.70;10.37;;;;;;;;;;5007447;28;20243;-78
2022/03/09 00:39:08;;;;;;;22.10;13.60;;;;;;;;;;5004603;28;20606;-78
2022/03/09 00:41:34;;;;;;;24.07;13.60;;;;;;;;;;5006569;28;20175;-78
2022/03/09 00:44:01;;;;;;;28.30;15.27;;;;;;;;;;5010917;28;20670;-78
2022/03/09 00:46:27;;;;;;;21.83;12.90;;;;;;;;;;5010011;28;20180;-78
2022/03/09 00:48:54;;;;;;;21.97;12.83;;;;;;;;;;5011875;28;20859;-78
2022/03/09 00:51:20;;;;;;;16.53;10.27;;;;;;;;;;5009686;28;20243;-78
2022/03/09 00:53:46;;;;;;;13.10;8.67;;;;;;;;;;5011694;28;20270;-78
2022/03/09 00:56:14;;;;;;;15.47;8.90;;;;;;;;;;5013507;28;20183;-78
2022/03/09 00:58:40;;;;;;;13.17;8.20;;;;;;;;;;5012820;28;20215;-78
2022/03/09 01:01:07;;;;;;;15.63;9.03;;;;;;;;;;5009608;28;20186;-78
2022/03/09 01:03:34;;;;;;;13.63;8.90;;;;;;;;;;5022471;28;20183;-78
2022/03/09 01:06:00;;;;;;;17.27;9.67;;;;;;;;;;5018897;28;20194;-78
2022/03/09 01:08:26;;;;;;;15.07;9.97;;;;;;;;;;5017047;28;20210;-78
2022/03/09 01:10:52;;;;;;;16.23;10.13;;;;;;;;;;5011738;28;20258;-78
2022/03/09 01:13:18;;;;;;;15.70;9.50;;;;;;;;;;4991948;28;20205;-78
2022/03/09 01:15:44;;;;;;;15.37;9.63;;;;;;;;;;4992842;28;20203;-78
2022/03/09 01:18:12;;;;;;;17.37;9.37;;;;;;;;;;5023031;28;20207;-78
2022/03/09 01:20:38;;;;;;;15.13;8.70;;;;;;;;;;5011929;28;20188;-78
2022/03/09 01:23:04;;;;;;;11.93;8.27;;;;;;;;;;5016802;28;20175;-78
2022/03/09 01:25:30;;;;;;;13.60;8.43;;;;;;;;;;5009807;28;20237;-78
2022/03/09 01:27:57;;;;;;;11.50;8.07;;;;;;;;;;5013832;28;20256;-78
2022/03/09 01:30:23;;;;;;;13.83;8.13;;;;;;;;;;5019932;28;20195;-78
2022/03/09 01:32:51;;;;;;;14.27;8.43;;;;;;;;;;5011899;28;20227;-78
2022/03/09 01:35:17;;;;;;;14.07;8.40;;;;;;;;;;5004987;28;20206;-78
2022/03/09 01:37:45;;;;;;;13.73;8.50;;;;;;;;;;5009445;28;20797;-78
2022/03/09 01:40:12;;;;;;;13.80;8.33;;;;;;;;;;5013146;28;20809;-78
2022/03/09 01:42:38;;;;;;;11.70;7.67;;;;;;;;;;5028359;28;20177;-78
2022/03/09 01:45:05;;;;;;;11.37;8.10;;;;;;;;;;5012201;28;20557;-78
2022/03/09 01:47:32;;;;;;;12.27;8.03;;;;;;;;;;5011725;28;20721;-78
2022/03/09 01:49:58;;;;;;;11.73;7.80;;;;;;;;;;5011682;28;20187;-78
2022/03/09 01:52:25;;;;;;;11.13;7.77;;;;;;;;;;5011443;28;20187;-78
2022/03/09 01:54:54;;;;;;;12.40;8.53;;;;;;;;;;5013400;28;20175;-78
2022/03/09 01:57:21;;;;;;;11.43;8.07;;;;;;;;;;5011468;28;20285;-78
2022/03/09 01:59:52;;;;;;;11.90;8.17;;;;;;;;;;5031386;23;20225;-81
2022/03/09 02:02:18;;;;;;;13.27;8.23;;;;;;;;;;5037457;28;20209;-81
2022/03/09 02:04:45;;;;;;;10.90;7.40;;;;;;;;;;5035843;28;20187;-80
2022/03/09 02:07:11;;;;;;;12.40;7.53;;;;;;;;;;5043885;28;21414;-81
2022/03/09 02:09:47;;;;;;;11.70;7.73;;;;;;;;;;5051897;28;20232;-81
2022/03/09 02:12:14;;;;;;;18.07;9.70;;;;;;;;;;5070619;28;20184;-81
2022/03/09 02:14:42;;;;;;;23.73;13.43;;;;;;;;;;5057251;28;20219;-81
2022/03/09 02:17:10;;;;;;;14.60;9.00;;;;;;;;;;5070886;28;20220;-81
2022/03/09 02:19:37;;;;;;;10.70;7.30;;;;;;;;;;5043975;28;20200;-81
2022/03/09 02:22:07;;;;;;;13.03;8.13;;;;;;;;;;5050929;28;20181;-81
2022/03/09 02:24:34;;;;;;;11.87;7.20;;;;;;;;;;5068435;28;20987;-81
2022/03/09 02:27:00;;;;;;;10.53;7.37;;;;;;;;;;5039841;28;20209;-81
2022/03/09 02:29:27;;;;;;;12.00;7.40;;;;;;;;;;5053237;28;20205;-81
2022/03/09 02:31:53;;;;;;;10.13;7.30;;;;;;;;;;5071881;28;20192;-81
2022/03/09 02:34:20;;;;;;;10.17;7.00;;;;;;;;;;5057882;28;20260;-81
2022/03/09 02:36:46;;;;;;;17.27;7.63;;;;;;;;;;5053119;28;20182;-81
2022/03/09 02:39:12;;;;;;;10.67;6.90;;;;;;;;;;5071853;28;20184;-81
2022/03/09 02:41:39;;;;;;;10.10;6.73;;;;;;;;;;5055006;28;20182;-81
2022/03/09 02:44:06;;;;;;;12.97;7.83;;;;;;;;;;5037762;28;20326;-81
2022/03/09 02:46:32;;;;;;;12.93;7.47;;;;;;;;;;5067383;28;20203;-81
2022/03/09 02:48:58;;;;;;;15.07;8.23;;;;;;;;;;5040062;28;20280;-81
2022/03/09 02:51:24;;;;;;;19.43;9.57;;;;;;;;;;5056815;28;20245;-81
2022/03/09 02:53:50;;;;;;;12.27;7.70;;;;;;;;;;5053472;28;20641;-81
2022/03/09 02:56:17;;;;;;;17.90;9.03;;;;;;;;;;5063029;28;20573;-81
2022/03/09 02:58:43;;;;;;;17.77;9.60;;;;;;;;;;5064959;28;20687;-81
2022/03/09 03:01:12;;;;;;;13.97;8.27;;;;;;;;;;5060304;28;20250;-81
2022/03/09 03:03:39;;;;;;;11.37;7.43;;;;;;;;;;5078634;28;20232;-81
2022/03/09 03:06:06;;;;;;;16.40;7.97;;;;;;;;;;5077011;28;20649;-81
2022/03/09 03:08:33;;;;;;;11.90;7.40;;;;;;;;;;5090243;28;20232;-81
2022/03/09 03:11:00;;;;;;;24.03;12.33;;;;;;;;;;5075376;28;20576;-81
2022/03/09 03:13:27;;;;;;;16.37;9.27;;;;;;;;;;5042615;28;21881;-81
2022/03/09 03:15:54;;;;;;;20.87;9.40;;;;;;;;;;5054643;28;20238;-81
2022/03/09 03:18:20;;;;;;;12.90;8.27;;;;;;;;;;5057789;28;20268;-81
2022/03/09 03:20:46;;;;;;;14.60;8.30;;;;;;;;;;5057681;28;20686;-80
2022/03/09 03:23:12;;;;;;;14.83;7.83;;;;;;;;;;5074139;28;20177;-81
2022/03/09 03:25:38;;;;;;;11.30;7.50;;;;;;;;;;5056961;28;20184;-81
2022/03/09 03:28:04;;;;;;;13.83;7.30;;;;;;;;;;5053500;28;20551;-81
2022/03/09 03:30:31;;;;;;;11.77;7.50;;;;;;;;;;5067905;28;20698;-81
2022/03/09 03:32:57;;;;;;;11.77;7.37;;;;;;;;;;5071393;28;20181;-81
2022/03/09 03:35:23;;;;;;;13.47;7.07;;;;;;;;;;5055721;28;20196;-81
2022/03/09 03:37:49;;;;;;;12.30;8.10;;;;;;;;;;5054776;28;20505;-81
2022/03/09 03:40:15;;;;;;;11.80;7.60;;;;;;;;;;5053202;28;20216;-81
2022/03/09 03:42:41;;;;;;;12.17;7.60;;;;;;;;;;5067150;28;20174;-81
2022/03/09 03:45:08;;;;;;;12.20;7.50;;;;;;;;;;5060829;28;20432;-81
2022/03/09 03:47:34;;;;;;;11.83;7.37;;;;;;;;;;5053996;28;20262;-81
2022/03/09 03:50:00;;;;;;;11.20;7.20;;;;;;;;;;5059951;28;20211;-81
2022/03/09 03:52:26;;;;;;;14.60;8.73;;;;;;;;;;5059118;28;20211;-81
2022/03/09 03:54:52;;;;;;;14.87;7.80;;;;;;;;;;5057825;28;20234;-81
2022/03/09 03:57:19;;;;;;;12.77;8.13;;;;;;;;;;5077164;28;20208;-81
2022/03/09 03:59:45;;;;;;;15.70;8.20;;;;;;;;;;5077329;28;20630;-81
2022/03/09 04:02:11;;;;;;;13.97;8.43;;;;;;;;;;5056861;28;20189;-81
2022/03/09 04:04:37;;;;;;;14.37;8.70;;;;;;;;;;5058104;28;20193;-81
2022/03/09 04:07:04;;;;;;;11.40;7.60;;;;;;;;;;5078178;28;20439;-81
2022/03/09 04:09:30;;;;;;;11.57;7.70;;;;;;;;;;5075689;28;20822;-81
2022/03/09 04:11:56;;;;;;;10.07;6.77;;;;;;;;;;5071824;28;20450;-81
2022/03/09 04:14:22;;;;;;;14.63;7.90;;;;;;;;;;5076256;28;20209;-81
2022/03/09 04:16:49;;;;;;;14.70;9.17;;;;;;;;;;5078020;28;20245;-80
2022/03/09 04:19:15;;;;;;;13.60;7.97;;;;;;;;;;5055737;28;20182;-80
2022/03/09 04:21:41;;;;;;;12.87;8.40;;;;;;;;;;5075255;28;20431;-81
2022/03/09 04:24:08;;;;;;;11.80;8.03;;;;;;;;;;5061456;28;20188;-80
2022/03/09 04:26:34;;;;;;;11.90;7.90;;;;;;;;;;5042137;28;20181;-81
2022/03/09 04:29:01;;;;;;;14.07;8.10;;;;;;;;;;5057082;28;20451;-81
2022/03/09 04:31:27;;;;;;;13.33;8.17;;;;;;;;;;5073982;28;20181;-81
2022/03/09 04:33:54;;;;;;;14.50;8.73;;;;;;;;;;5054230;28;20292;-81
2022/03/09 04:36:20;;;;;;;14.67;8.70;;;;;;;;;;5072475;28;20186;-81
2022/03/09 04:38:47;;;;;;;12.87;8.60;;;;;;;;;;5056990;28;20225;-81
2022/03/09 04:41:13;;;;;;;14.30;8.63;;;;;;;;;;5069126;28;20210;-81
2022/03/09 04:43:39;;;;;;;13.57;8.50;;;;;;;;;;5072346;28;20177;-81
2022/03/09 04:46:05;;;;;;;14.57;9.03;;;;;;;;;;5075241;28;20627;-81
2022/03/09 04:48:31;;;;;;;13.37;7.93;;;;;;;;;;5047767;28;20185;-81
2022/03/09 04:50:57;;;;;;;14.60;8.73;;;;;;;;;;5072946;28;20214;-81
2022/03/09 04:53:23;;;;;;;12.00;8.20;;;;;;;;;;5070179;28;20546;-81
2022/03/09 04:55:50;;;;;;;11.93;7.83;;;;;;;;;;5075868;28;20195;-81
2022/03/09 04:58:16;;;;;;;13.47;8.37;;;;;;;;;;5073189;28;20209;-81
2022/03/09 05:00:42;;;;;;;13.37;8.23;;;;;;;;;;5070894;28;20225;-81
2022/03/09 05:03:09;;;;;;;13.63;8.03;;;;;;;;;;5074369;28;20180;-80
2022/03/09 05:05:35;;;;;;;13.53;7.90;;;;;;;;;;5056928;28;20177;-81
2022/03/09 05:08:01;;;;;;;15.20;7.60;;;;;;;;;;5075249;28;20185;-81
2022/03/09 05:10:27;;;;;;;10.93;7.83;;;;;;;;;;5072910;28;20205;-81
2022/03/09 05:12:54;;;;;;;14.37;8.80;;;;;;;;;;5059398;28;20617;-81
2022/03/09 05:15:20;;;;;;;12.63;8.30;;;;;;;;;;5060169;28;20176;-80
2022/03/09 05:17:46;;;;;;;14.07;8.80;;;;;;;;;;5074803;28;20254;-81
2022/03/09 05:20:14;;;;;;;15.53;9.57;;;;;;;;;;5077127;28;20205;-81
2022/03/09 05:22:40;;;;;;;15.23;10.10;;;;;;;;;;5075412;28;20169;-81
2022/03/09 05:25:07;;;;;;;13.03;9.03;;;;;;;;;;5060876;28;20485;-81
2022/03/09 05:27:33;;;;;;;14.63;9.60;;;;;;;;;;5079875;28;21004;-80
2022/03/09 05:29:59;;;;;;;14.30;8.83;;;;;;;;;;5086876;28;20288;-80
2022/03/09 05:32:26;;;;;;;13.90;8.83;;;;;;;;;;5072201;28;20459;-80
2022/03/09 05:34:52;;;;;;;17.07;8.93;;;;;;;;;;5091185;28;20172;-81
2022/03/09 05:37:19;;;;;;;15.27;9.53;;;;;;;;;;5082154;28;20207;-80
2022/03/09 05:39:45;;;;;;;13.27;8.50;;;;;;;;;;5060452;28;20998;-81
2022/03/09 05:42:11;;;;;;;15.53;9.33;;;;;;;;;;5071484;28;20186;-80
2022/03/09 05:44:38;;;;;;;14.40;8.40;;;;;;;;;;5076750;28;20264;-81
2022/03/09 05:47:05;;;;;;;14.53;9.23;;;;;;;;;;5059881;28;20193;-80
2022/03/09 05:49:31;;;;;;;17.60;9.20;;;;;;;;;;5076931;28;20451;-81
2022/03/09 05:51:57;;;;;;;14.03;8.63;;;;;;;;;;5077507;28;20493;-80
2022/03/09 05:54:23;;;;;;;15.27;9.47;;;;;;;;;;5074407;28;20455;-80
2022/03/09 05:56:50;;;;;;;15.50;9.00;;;;;;;;;;5074695;28;20436;-80
2022/03/09 05:59:16;;;;;;;15.93;9.67;;;;;;;;;;5057682;28;20197;-80
2022/03/09 06:01:42;;;;;;;15.37;9.80;;;;;;;;;;5057341;28;20522;-80
2022/03/09 06:04:08;;;;;;;15.17;9.23;;;;;;;;;;5075531;28;20427;-78
2022/03/09 06:06:34;;;;;;;14.50;9.07;;;;;;;;;;5072794;28;20434;-84
2022/03/09 06:09:00;;;;;;;15.43;8.97;;;;;;;;;;5071983;28;20438;-81
2022/03/09 06:11:27;;;;;;;12.63;8.63;;;;;;;;;;5072311;28;20208;-79
2022/03/09 06:13:54;;;;;;;14.53;8.23;;;;;;;;;;5072118;28;21003;-79
2022/03/09 06:16:20;;;;;;;14.77;8.50;;;;;;;;;;5065951;28;20439;-77
2022/03/09 06:18:46;;;;;;;16.37;8.90;;;;;;;;;;5056281;28;21049;-78
2022/03/09 06:21:13;;;;;;;15.27;10.13;;;;;;;;;;5069870;28;20457;-78
2022/03/09 06:23:39;;;;;;;16.93;10.83;;;;;;;;;;5053225;28;20739;-78
2022/03/09 06:26:05;;;;;;;15.53;9.23;;;;;;;;;;5067813;28;20440;-78
2022/03/09 06:28:32;;;;;;;14.17;8.70;;;;;;;;;;5086602;28;21140;-78
2022/03/09 06:30:58;;;;;;;17.60;9.13;;;;;;;;;;5067356;28;20463;-79
2022/03/09 06:33:24;;;;;;;20.07;9.67;;;;;;;;;;5064703;28;20423;-79
2022/03/09 06:35:51;;;;;;;19.37;9.37;;;;;;;;;;5072661;28;20576;-80
2022/03/09 06:38:18;;;;;;;13.77;8.73;;;;;;;;;;5063982;28;20471;-75
2022/03/09 06:40:44;;;;;;;15.23;9.23;;;;;;;;;;5066556;28;20203;-76
2022/03/09 06:43:10;;;;;;;15.63;8.73;;;;;;;;;;5070679;28;20181;-77
2022/03/09 06:45:36;;;;;;;13.70;9.20;;;;;;;;;;5070918;28;20430;-76
2022/03/09 06:48:03;;;;;;;17.03;9.07;;;;;;;;;;5067840;28;20230;-75
2022/03/09 06:50:29;;;;;;;13.90;8.97;;;;;;;;;;5067464;28;20824;-76
2022/03/09 06:52:55;;;;;;;16.27;8.73;;;;;;;;;;5055791;28;20424;-75
2022/03/09 06:55:22;;;;;;;19.30;9.17;;;;;;;;;;5070193;28;20427;-79
2022/03/09 06:57:48;;;;;;;14.60;8.93;;;;;;;;;;5069736;28;20250;-77
2022/03/09 07:00:15;;;;;;;18.40;9.70;;;;;;;;;;5073109;28;20300;-84
2022/03/09 07:02:42;;;;;;;18.03;9.00;;;;;;;;;;5071454;28;20259;-81
2022/03/09 07:05:08;;;;;;;15.20;8.93;;;;;;;;;;5072748;28;20165;-78
2022/03/09 07:07:36;;;;;;;17.80;9.50;;;;;;;;;;5072318;28;20231;-82
2022/03/09 07:10:02;;;;;;;15.87;10.27;;;;;;;;;;5069880;28;20201;-78
2022/03/09 07:12:28;;;;;;;19.23;10.60;;;;;;;;;;5070447;28;20181;-76
2022/03/09 07:14:55;;;;;;;21.23;10.73;;;;;;;;;;5070356;28;20181;-76
2022/03/09 07:17:21;;;;;;;16.63;10.80;;;;;;;;;;5051248;28;20251;-76
2022/03/09 07:19:47;;;;;;;20.17;9.63;;;;;;;;;;5056691;28;20199;-76
2022/03/09 07:22:13;;;;;;;17.97;10.30;;;;;;;;;;5065168;28;20181;-75
2022/03/09 07:24:39;;;;;;;21.73;9.77;;;;;;;;;;5069588;28;20169;-76
2022/03/09 07:27:05;;;;;;;18.73;10.90;;;;;;;;;;5049258;28;20216;-76
2022/03/09 07:29:31;;;;;;;17.47;11.10;;;;;;;;;;5069416;28;20200;-76
2022/03/09 07:31:57;;;;;;;15.80;10.20;;;;;;;;;;5070465;28;20185;-76
2022/03/09 07:34:26;;;;;;;17.07;10.60;;;;;;;;;;5069432;28;20800;-76
2022/03/09 07:36:57;;;;;;;16.97;11.30;;;;;;;;;;5070355;28;20200;-76
2022/03/09 07:39:24;;;;;;;18.50;10.77;;;;;;;;;;5069699;28;20917;-78
2022/03/09 07:41:50;;;;;;;19.30;10.90;;;;;;;;;;5071623;28;20158;-81
2022/03/09 07:44:18;;;;;;;28.37;11.03;;;;;;;;;;5071560;28;20764;-79
2022/03/09 07:46:44;;;;;;;16.83;10.90;;;;;;;;;;5070701;28;20181;-79
2022/03/09 07:49:10;;;;;;;20.60;10.23;;;;;;;;;;5071297;28;20188;-78
2022/03/09 07:51:37;;;;;;;16.07;10.63;;;;;;;;;;5069816;28;20546;-78
2022/03/09 07:54:04;;;;;;;16.67;10.07;;;;;;;;;;5068875;28;20199;-78
2022/03/09 07:56:30;;;;;;;20.17;11.53;;;;;;;;;;5070291;28;20169;-77
2022/03/09 07:58:56;;;;;;;18.43;10.03;;;;;;;;;;5070341;28;20192;-78
2022/03/09 08:01:23;;;;;;;17.03;10.53;;;;;;;;;;5071369;28;20308;-78
2022/03/09 08:03:49;;;;;;;16.00;10.27;;;;;;;;;;5071476;28;20188;-78
2022/03/09 08:06:15;;;;;;;15.97;10.97;;;;;;;;;;5071418;28;20624;-78
2022/03/09 08:08:41;;;;;;;17.60;11.07;;;;;;;;;;5053818;28;20277;-78
2022/03/09 08:11:08;;;;;;;14.70;10.90;;;;;;;;;;5071291;28;20214;-78
2022/03/09 08:13:34;;;;;;;16.13;10.03;;;;;;;;;;5071369;28;20262;-78
2022/03/09 08:16:01;;;;;;;14.77;10.07;;;;;;;;;;5071058;28;20185;-78
2022/03/09 08:18:27;;;;;;;16.70;10.90;;;;;;;;;;5071323;28;20215;-78
2022/03/09 08:20:53;;;;;;;16.77;10.23;;;;;;;;;;5069992;28;20270;-78
2022/03/09 08:23:19;;;;;;;13.63;8.77;;;;;;;;;;5071054;28;20252;-78
2022/03/09 08:25:45;;;;;;;15.73;10.07;;;;;;;;;;5071704;28;20166;-79
2022/03/09 08:28:11;;;;;;;16.10;9.83;;;;;;;;;;5071244;28;20182;-79
2022/03/09 08:30:39;;;;;;;15.40;9.80;;;;;;;;;;5053745;28;20213;-79
2022/03/09 08:33:06;;;;;;;15.27;9.83;;;;;;;;;;5073928;28;20264;-79
2022/03/09 08:35:32;;;;;;;15.00;10.23;;;;;;;;;;5074758;28;20219;-79
2022/03/09 08:37:58;;;;;;;15.90;10.10;;;;;;;;;;5075075;28;20283;-79
2022/03/09 08:40:24;;;;;;;15.07;9.97;;;;;;;;;;5073953;28;20201;-79
2022/03/09 08:42:51;;;;;;;16.53;10.10;;;;;;;;;;5074715;28;20173;-79
2022/03/09 08:45:17;;;;;;;16.60;11.23;;;;;;;;;;5074289;28;20185;-78
2022/03/09 08:47:43;;;;;;;14.80;9.53;;;;;;;;;;5074451;28;20168;-76
2022/03/09 08:50:09;;;;;;;14.87;9.70;;;;;;;;;;5063447;28;20566;-76
2022/03/09 08:52:36;;;;;;;15.30;9.30;;;;;;;;;;5053081;28;20170;-76
2022/03/09 08:55:02;;;;;;;13.33;9.07;;;;;;;;;;5064723;28;20663;-76
2022/03/09 08:57:29;;;;;;;13.40;8.67;;;;;;;;;;5073325;28;20255;-76
2022/03/09 08:59:57;;;;;;;17.93;9.70;;;;;;;;;;5074488;28;20730;-76
2022/03/09 09:02:25;;;;;;;18.47;10.13;;;;;;;;;;5073047;28;20170;-77
2022/03/09 09:04:51;;;;;;;13.90;8.87;;;;;;;;;;5074011;28;20548;-77
2022/03/09 09:07:17;;;;;;;13.77;9.07;;;;;;;;;;5074053;28;20181;-76
2022/03/09 09:09:43;;;;;;;11.07;8.23;;;;;;;;;;5072966;28;20410;-76
2022/03/09 09:12:11;;;;;;;14.17;8.80;;;;;;;;;;5072801;28;20177;-76
2022/03/09 09:14:37;;;;;;;17.10;9.83;;;;;;;;;;5073975;28;20185;-76
2022/03/09 09:17:04;;;;;;;13.30;9.00;;;;;;;;;;5073738;28;20652;-76
2022/03/09 09:19:31;;;;;;;12.73;8.90;;;;;;;;;;5073699;28;20201;-76
2022/03/09 09:21:57;;;;;;;14.83;8.87;;;;;;;;;;5073593;28;20181;-76
2022/03/09 09:24:23;;;;;;;14.17;9.03;;;;;;;;;;5073679;28;20184;-76
2022/03/09 09:26:49;;;;;;;14.10;8.43;;;;;;;;;;5073459;28;20166;-76
2022/03/09 09:29:16;;;;;;;12.80;9.47;;;;;;;;;;5073787;28;20169;-76
2022/03/09 09:31:42;;;;;;;15.40;9.70;;;;;;;;;;5072216;28;20153;-76
2022/03/09 09:34:08;;;;;;;13.67;9.17;;;;;;;;;;5068786;28;20208;-76
2022/03/09 09:36:35;;;;;;;13.07;9.17;;;;;;;;;;5053568;28;20182;-76
2022/03/09 09:39:02;;;;;;;12.80;8.70;;;;;;;;;;5053568;28;20223;-76
2022/03/09 09:41:28;;;;;;;12.93;9.27;;;;;;;;;;5053557;28;20228;-76
2022/03/09 09:43:54;;;;;;;14.37;8.60;;;;;;;;;;5063618;28;20193;-76
2022/03/09 09:46:21;;;;;;;14.23;8.83;;;;;;;;;;5073422;28;20197;-77
2022/03/09 09:48:48;;;;;;;15.97;9.83;;;;;;;;;;5072206;28;20176;-77
2022/03/09 09:51:14;;;;;;;14.73;9.30;;;;;;;;;;5073012;28;20208;-76
2022/03/09 09:53:43;;;;;;;13.30;9.10;;;;;;;;;;5073002;28;20186;-76
2022/03/09 09:56:10;;;;;;;13.67;8.70;;;;;;;;;;5072710;28;20227;-78
2022/03/09 09:58:43;;;;;;;13.63;8.50;;;;;;;;;;5073073;28;20197;-77
2022/03/09 10:01:09;;;;;;;12.83;8.57;;;;;;;;;;5071145;28;20303;-77
2022/03/09 10:03:35;;;;;;;15.83;9.20;;;;;;;;;;5072890;28;20222;-76
2022/03/09 10:06:02;;;;;;;12.67;8.23;;;;;;;;;;5071717;28;20242;-76
2022/03/09 10:08:28;;;;;;;12.90;8.60;;;;;;;;;;5072971;28;20189;-76
2022/03/09 10:10:57;;;;;;;15.30;9.57;;;;;;;;;;5055008;28;20216;-77
2022/03/09 10:13:28;;;;;;;13.37;8.97;;;;;;;;;;5072438;28;20188;-77
2022/03/09 10:16:12;;;;;;;12.40;8.63;;;;;;;;;;5071602;28;20209;-77
2022/03/09 10:18:39;;;;;;;15.37;9.50;;;;;;;;;;5071903;28;20250;-77
2022/03/09 10:21:10;;;;;;;13.90;9.53;;;;;;;;;;5071439;28;20228;-77
2022/03/09 10:23:50;;;;;;;12.30;9.17;;;;;;;;;;5072411;28;20184;-77
2022/03/09 10:26:17;;;;;;;11.63;8.57;;;;;;;;;;5072980;28;20232;-78
2022/03/09 10:28:57;;;;;;;12.97;9.47;;;;;;;;;;5072623;28;20169;-77
2022/03/09 10:31:38;;;;;;;14.40;9.00;;;;;;;;;;5072202;28;20231;-77
2022/03/09 10:34:09;;;;;;;16.20;8.83;;;;;;;;;;5072342;28;20745;-77
2022/03/09 10:36:35;;;;;;;14.00;8.60;;;;;;;;;;5071099;28;20173;-77
2022/03/09 10:39:17;;;;;;;13.73;8.10;;;;;;;;;;5072485;28;20224;-77
2022/03/09 10:41:44;;;;;;;12.27;8.47;;;;;;;;;;5070742;28;20640;-77
2022/03/09 10:44:13;;;;;;;14.53;9.80;;;;;;;;;;5072278;28;20181;-77
2022/03/09 10:46:46;;;;;;;12.70;8.47;;;;;;;;;;5072114;28;20683;-77
2022/03/09 10:49:14;;;;;;;13.43;8.73;;;;;;;;;;5072152;28;20169;-77
2022/03/09 10:51:42;;;;;;;12.67;9.10;;;;;;;;;;5071710;28;20219;-76
2022/03/09 10:54:09;;;;;;;13.80;9.13;;;;;;;;;;5071734;28;20187;-76
2022/03/09 10:56:36;;;;;;;14.13;9.00;;;;;;;;;;5071968;28;20206;-77
2022/03/09 10:59:20;;;;;;;13.77;9.13;;;;;;;;;;5054053;28;20315;-77
2022/03/09 11:02:09;;;;;;;13.00;8.73;;;;;;;;;;5070184;28;20165;-76
2022/03/09 11:04:35;;;;;;;13.90;8.37;;;;;;;;;;5068717;28;20192;-76
2022/03/09 11:07:02;;;;;;;13.53;8.93;;;;;;;;;;5070900;28;20177;-77
2022/03/09 11:09:29;;;;;;;13.90;9.30;;;;;;;;;;5075404;28;20193;-80
2022/03/09 11:11:57;;;;;;;13.43;8.93;;;;;;;;;;5075579;28;20200;-78
2022/03/09 11:14:26;;;;;;;13.07;9.13;;;;;;;;;;5072211;28;20181;-77
2022/03/09 11:16:54;;;;;;;13.07;8.83;;;;;;;;;;5070394;28;20185;-78
2022/03/09 11:19:20;;;;;;;11.47;9.30;;;;;;;;;;5071344;28;20694;-78
2022/03/09 11:21:47;;;;;;;13.73;9.07;;;;;;;;;;5070636;28;20188;-78
2022/03/09 11:24:17;;;;;;;12.47;8.63;;;;;;;;;;5067908;28;20174;-78
2022/03/09 11:26:46;;;;;;;13.43;8.30;;;;;;;;;;5062918;28;20200;-78
2022/03/09 11:29:12;;;;;;;14.00;9.43;;;;;;;;;;5053618;28;20228;-77
2022/03/09 11:31:43;;;;;;;11.40;8.87;;;;;;;;;;5051417;28;20162;-78
2022/03/09 11:34:29;;;;;;;16.23;9.83;;;;;;;;;;5058632;28;20906;-79
2022/03/09 11:37:15;;;;;;;13.80;9.23;;;;;;;;;;5072768;28;20184;-86
2022/03/09 11:40:10;;;;;;;13.77;10.07;;;;;;;;;;5074189;28;20265;-76
2022/03/09 11:42:37;;;;;;;15.50;9.77;;;;;;;;;;5074449;28;20315;-80
2022/03/09 11:45:29;;;;;;;14.97;9.60;;;;;;;;;;5075356;28;20655;-77
2022/03/09 11:47:56;;;;;;;14.20;9.53;;;;;;;;;;5066317;28;20184;-78
2022/03/09 11:50:23;;;;;;;13.33;9.43;;;;;;;;;;5071012;28;20201;-78
2022/03/09 11:53:01;;;;;;;14.47;10.33;;;;;;;;;;5068639;28;20558;-76
2022/03/09 11:55:28;;;;;;;12.47;9.73;;;;;;;;;;5069480;28;20675;-77
2022/03/09 11:58:03;;;;;;;14.23;9.77;;;;;;;;;;5070235;28;20213;-78
2022/03/09 12:00:29;;;;;;;12.33;9.60;;;;;;;;;;5070874;28;20204;-78
2022/03/09 12:02:56;;;;;;;12.83;9.77;;;;;;;;;;5069046;28;20165;-78
2022/03/09 12:05:25;;;;;;;13.63;10.23;;;;;;;;;;5064533;28;21033;-78
2022/03/09 12:07:52;;;;;;;13.70;10.30;;;;;;;;;;5074588;28;20176;-79
2022/03/09 12:10:21;;;;;;;13.60;9.90;;;;;;;;;;5058728;28;20215;-77
2022/03/09 12:13:06;;;;;;;12.90;9.30;;;;;;;;;;5079995;28;20178;-75
2022/03/09 12:15:36;;;;;;;12.87;9.93;;;;;;;;;;5081346;28;20192;-73
2022/03/09 12:18:22;;;;;;;11.57;9.50;;;;;;;;;;5076304;28;20201;-72
2022/03/09 12:20:49;;;;;;;14.93;10.33;;;;;;;;;;5074695;28;20219;-77
2022/03/09 12:23:16;;;;;;;13.47;10.17;;;;;;;;;;5074213;28;20192;-78
2022/03/09 12:25:43;;;;;;;12.60;9.77;;;;;;;;;;5075097;28;20161;-78
2022/03/09 12:28:25;;;;;;;14.13;10.60;;;;;;;;;;5072911;28;20523;-74
2022/03/09 12:30:58;;;;;;;12.40;10.17;;;;;;;;;;5073091;28;20220;-73
2022/03/09 12:33:31;;;;;;;15.20;10.40;;;;;;;;;;5073628;28;20267;-76
2022/03/09 12:36:03;;;;;;;13.10;9.83;;;;;;;;;;5071875;28;20169;-73
2022/03/09 12:38:36;;;;;;;14.47;11.07;;;;;;;;;;5067243;28;20201;-74
2022/03/09 12:41:03;;;;;;;13.93;10.63;;;;;;;;;;5072660;28;20338;-74
2022/03/09 12:43:48;;;;;;;15.53;10.77;;;;;;;;;;5064748;28;20181;-74
2022/03/09 12:46:15;;;;;;;12.27;10.10;;;;;;;;;;5078087;28;20714;-73
2022/03/09 12:48:42;;;;;;;13.53;10.90;;;;;;;;;;5071172;28;20173;-74
2022/03/09 12:51:08;;;;;;;12.67;10.80;;;;;;;;;;5070986;28;20194;-74
2022/03/09 12:53:35;;;;;;;12.07;10.03;;;;;;;;;;5076434;28;20180;-74
2022/03/09 12:56:21;;;;;;;14.00;10.87;;;;;;;;;;5077192;28;20750;-76
2022/03/09 12:58:49;;;;;;;14.20;11.07;;;;;;;;;;5073735;28;20204;-75
2022/03/09 13:01:15;;;;;;;12.43;10.60;;;;;;;;;;5073481;28;20209;-75
2022/03/09 13:03:42;;;;;;;14.90;11.00;;;;;;;;;;5072961;28;20677;-75
2022/03/09 13:06:24;;;;;;;15.30;11.93;;;;;;;;;;5070818;28;20170;-75
2022/03/09 13:08:50;;;;;;;11.27;9.77;;;;;;;;;;5069763;28;20180;-75
2022/03/09 13:11:36;;;;;;;15.10;10.63;;;;;;;;;;5073178;28;20208;-75
2022/03/09 13:14:15;;;;;;;12.30;10.57;;;;;;;;;;5072984;28;20684;-76
2022/03/09 13:16:41;;;;;;;13.53;10.77;;;;;;;;;;5071264;28;20189;-76
2022/03/09 13:19:07;;;;;;;12.00;10.70;;;;;;;;;;5072957;28;20205;-78
2022/03/09 13:21:34;;;;;;;12.53;10.97;;;;;;;;;;5058167;28;20538;-78
2022/03/09 13:24:01;;;;;;;12.07;10.80;;;;;;;;;;5065564;28;20181;-80
2022/03/09 13:26:28;;;;;;;13.93;11.60;;;;;;;;;;5078020;28;20192;-79
2022/03/09 13:28:57;;;;;;;13.27;10.50;;;;;;;;;;5073803;28;20170;-78
2022/03/09 13:31:39;;;;;;;13.67;10.17;;;;;;;;;;5072745;28;20206;-78
2022/03/09 13:34:13;;;;;;;14.33;10.87;;;;;;;;;;5072759;28;20195;-78
2022/03/09 13:36:39;;;;;;;16.43;11.03;;;;;;;;;;5073068;28;20173;-77
2022/03/09 13:39:05;;;;;;;12.23;10.60;;;;;;;;;;5073750;28;20670;-77
2022/03/09 13:41:36;;;;;;;12.67;10.60;;;;;;;;;;5072776;28;20181;-77
2022/03/09 13:44:02;;;;;;;15.00;11.40;;;;;;;;;;5072693;28;20180;-79
2022/03/09 13:46:28;;;;;;;11.53;10.50;;;;;;;;;;5073332;28;20601;-79
2022/03/09 13:49:07;;;;;;;12.77;10.17;;;;;;;;;;5073157;28;20294;-78
2022/03/09 13:51:34;;;;;;;12.17;10.87;;;;;;;;;;5073364;28;20600;-79
2022/03/09 13:54:05;;;;;;;14.07;11.50;;;;;;;;;;5074777;28;20209;-79
2022/03/09 13:56:33;;;;;;;11.70;10.50;;;;;;;;;;5072925;28;20235;-78
2022/03/09 13:58:59;;;;;;;12.17;10.87;;;;;;;;;;5072164;28;20247;-78
2022/03/09 14:01:33;;;;;;;18.57;11.30;;;;;;;;;;5072478;28;20227;-78
2022/03/09 14:04:05;;;;;;;14.47;11.50;;;;;;;;;;5072784;28;20177;-78
2022/03/09 14:06:33;;;;;;;11.50;10.30;;;;;;;;;;5072138;28;20227;-78
2022/03/09 14:09:09;;;;;;;12.60;11.03;;;;;;;;;;5072866;28;20191;-78
2022/03/09 14:11:36;;;;;;;12.70;11.40;;;;;;;;;;5072744;28;20238;-78
2022/03/09 14:14:02;;;;;;;12.67;10.23;;;;;;;;;;5072905;28;20181;-78
2022/03/09 14:16:31;;;;;;;11.83;10.63;;;;;;;;;;5072528;28;20189;-78
2022/03/09 14:18:58;;;;;;;12.70;11.40;;;;;;;;;;5071440;28;20295;-78
2022/03/09 14:21:24;;;;;;;12.50;11.00;;;;;;;;;;5072396;28;20633;-79
2022/03/09 14:23:54;;;;;;;13.60;10.97;;;;;;;;;;5072116;28;20204;-78
2022/03/09 14:26:21;;;;;;;12.47;11.17;;;;;;;;;;5064333;28;20173;-78
2022/03/09 14:28:47;;;;;;;12.40;11.10;;;;;;;;;;5072396;28;20169;-78